createdAt,value
2023-05-21T00:00:57.064Z,101691.03
2023-05-21T00:03:28.412Z,101683.47
2023-05-21T00:05:58.146Z,101676.53
2023-05-21T00:08:27.705Z,101662.47
2023-05-21T00:10:57.381Z,101658.75
2023-05-21T00:13:26.896Z,101666.25
2023-05-21T00:15:59.073Z,101671.75
2023-05-21T00:18:28.663Z,101680.38
2023-05-21T00:20:58.340Z,101686.97
2023-05-21T00:23:27.963Z,101694.59
2023-05-21T00:25:57.497Z,101692.72
2023-05-21T00:28:27.014Z,101694.94
2023-05-21T00:30:59.148Z,101711.03
2023-05-21T00:33:29.242Z,101713.56
2023-05-21T00:35:59.093Z,101722.59
2023-05-21T00:38:28.646Z,101734.69
2023-05-21T00:40:58.256Z,101743.03
2023-05-21T00:43:27.794Z,101746.41
2023-05-21T00:45:59.976Z,101754.25
2023-05-21T00:48:29.508Z,101750.72
2023-05-21T00:50:59.132Z,101766.19
2023-05-21T00:53:28.764Z,101765.97
2023-05-21T00:55:58.299Z,101775.06
2023-05-21T00:58:27.854Z,101780.81
2023-05-21T01:01:03.694Z,101812.56
2023-05-21T01:03:38.832Z,101827.91
2023-05-21T01:06:08.925Z,101841.72
2023-05-21T01:08:38.913Z,101837.16
2023-05-21T01:11:09.818Z,101850.75
2023-05-21T01:13:43.097Z,101859.97
2023-05-21T01:16:17.903Z,101866.53
2023-05-21T01:18:48.008Z,101883.75
2023-05-21T01:21:18.283Z,101893.00
2023-05-21T01:23:50.689Z,101909.34
2023-05-21T01:26:20.220Z,101914.13
2023-05-21T01:28:49.829Z,101912.34
2023-05-21T01:31:31.390Z,101922.94
2023-05-21T01:34:02.695Z,101921.16
2023-05-21T01:36:36.189Z,101922.66
2023-05-21T01:39:11.839Z,101931.19
2023-05-21T01:41:44.126Z,101934.75
2023-05-21T01:44:14.295Z,101944.94
2023-05-21T01:46:43.953Z,101948.03
2023-05-21T01:49:14.315Z,101951.41
2023-05-21T01:51:44.005Z,101973.88
2023-05-21T01:54:16.215Z,101988.84
2023-05-21T01:56:46.257Z,101991.84
2023-05-21T01:59:17.363Z,101988.47
2023-05-21T02:01:46.983Z,101992.53
2023-05-21T02:04:16.582Z,101990.84
2023-05-21T02:06:46.186Z,102004.03
2023-05-21T02:09:18.345Z,102002.16
2023-05-21T02:11:47.970Z,102003.75
2023-05-21T02:14:17.553Z,102008.28
2023-05-21T02:16:47.316Z,102014.53
2023-05-21T02:19:17.317Z,102021.38
2023-05-21T02:21:46.967Z,102025.22
2023-05-21T02:24:19.064Z,102020.19
2023-05-21T02:26:50.592Z,102013.72
2023-05-21T02:29:20.197Z,102020.59
2023-05-21T02:31:51.084Z,102017.44
2023-05-21T02:34:21.699Z,102026.13
2023-05-21T02:36:54.063Z,102033.25
2023-05-21T02:39:26.319Z,102047.50
2023-05-21T02:41:55.865Z,102069.72
2023-05-21T02:44:25.995Z,102068.72
2023-05-21T02:46:55.557Z,102078.94
2023-05-21T02:49:25.169Z,102079.41
2023-05-21T02:51:54.754Z,102086.94
2023-05-21T02:54:26.855Z,102084.34
2023-05-21T02:56:56.804Z,102090.78
2023-05-21T02:59:26.571Z,102104.13
2023-05-21T03:01:56.170Z,102104.13
2023-05-21T03:04:28.423Z,102120.38
2023-05-21T03:06:58.747Z,102116.00
2023-05-21T03:09:30.974Z,102124.72
2023-05-21T03:12:00.548Z,102122.94
2023-05-21T03:14:30.078Z,102120.94
2023-05-21T03:16:59.726Z,102118.97
2023-05-21T03:19:30.762Z,102116.38
2023-05-21T03:22:00.371Z,102122.41
2023-05-21T03:24:33.313Z,102134.41
2023-05-21T03:27:06.469Z,102125.66
2023-05-21T03:29:36.399Z,102110.22
2023-05-21T03:32:06.474Z,102102.59
2023-05-21T03:34:37.560Z,102099.47
2023-05-21T03:37:07.422Z,102086.47
2023-05-21T03:39:39.622Z,102074.38
2023-05-21T03:42:09.273Z,102004.06
2023-05-21T03:44:38.839Z,101981.84
2023-05-21T03:47:08.629Z,101957.69
2023-05-21T03:49:38.243Z,101951.63
2023-05-21T03:52:08.014Z,101940.25
2023-05-21T03:54:40.365Z,101922.44
2023-05-21T03:57:09.900Z,101912.03
2023-05-21T03:59:39.486Z,101901.84
2023-05-21T04:02:09.072Z,101884.91
2023-05-21T04:04:38.767Z,101877.88
2023-05-21T04:07:14.756Z,101870.34
2023-05-21T04:09:47.007Z,101852.41
2023-05-21T04:12:18.213Z,101836.25
2023-05-21T04:14:47.806Z,101829.72
2023-05-21T04:17:19.299Z,101817.22
2023-05-21T04:19:48.858Z,101813.25
2023-05-21T04:22:18.492Z,101807.69
2023-05-21T04:24:50.661Z,101801.75
2023-05-21T04:27:20.203Z,101794.59
2023-05-21T04:29:50.843Z,101793.41
2023-05-21T04:32:20.696Z,101788.25
2023-05-21T04:34:50.296Z,101793.00
2023-05-21T04:37:20.673Z,101782.84
2023-05-21T04:39:53.694Z,101794.25
2023-05-21T04:42:24.177Z,101788.69
2023-05-21T04:44:55.661Z,101783.00
2023-05-21T04:47:25.276Z,101783.38
2023-05-21T04:49:54.841Z,101785.97
2023-05-21T04:52:25.252Z,101789.50
2023-05-21T04:54:57.436Z,101795.75
2023-05-21T04:57:28.332Z,101793.53
2023-05-21T04:59:58.039Z,101793.91
2023-05-21T05:02:27.653Z,101800.25
2023-05-21T05:04:57.237Z,101800.44
2023-05-21T05:07:26.840Z,101810.31
2023-05-21T05:09:59.026Z,101811.56
2023-05-21T05:12:28.582Z,101817.47
2023-05-21T05:14:58.169Z,101822.13
2023-05-21T05:17:27.750Z,101831.91
2023-05-21T05:19:57.301Z,101839.84
2023-05-21T05:22:27.009Z,101850.69
2023-05-21T05:24:59.124Z,101853.53
2023-05-21T05:27:28.726Z,101863.34
2023-05-21T05:29:58.323Z,101871.25
2023-05-21T05:32:27.882Z,101871.72
2023-05-21T05:34:57.523Z,101871.97
2023-05-21T05:37:27.077Z,101875.72
2023-05-21T05:39:59.252Z,101883.00
2023-05-21T05:42:28.788Z,101890.16
2023-05-21T05:44:58.712Z,101884.28
2023-05-21T05:47:28.234Z,101898.34
2023-05-21T05:49:57.772Z,101896.97
2023-05-21T05:52:27.275Z,101901.69
2023-05-21T05:54:59.356Z,101908.97
2023-05-21T05:57:28.871Z,101915.50
2023-05-21T05:59:58.618Z,101923.75
2023-05-21T06:02:28.244Z,101927.50
2023-05-21T06:04:58.517Z,101943.34
2023-05-21T06:07:28.050Z,101952.25
2023-05-21T06:10:00.157Z,101949.38
2023-05-21T06:12:29.746Z,101952.94
2023-05-21T06:14:59.338Z,101952.56
2023-05-21T06:17:29.019Z,101957.09
2023-05-21T06:19:59.378Z,101962.91
2023-05-21T06:22:28.992Z,101966.06
2023-05-21T06:25:01.120Z,101971.72
2023-05-21T06:27:30.806Z,101987.50
2023-05-21T06:30:00.468Z,101991.63
2023-05-21T06:32:30.082Z,101994.16
2023-05-21T06:34:59.661Z,101996.44
2023-05-21T06:37:29.279Z,102006.44
2023-05-21T06:40:01.416Z,102013.88
2023-05-21T06:42:31.009Z,102010.38
2023-05-21T06:45:00.692Z,102020.41
2023-05-21T06:47:30.218Z,102020.13
2023-05-21T06:49:59.826Z,102020.88
2023-05-21T06:52:29.548Z,102017.53
2023-05-21T06:55:01.721Z,102028.44
2023-05-21T06:57:31.440Z,102026.53
2023-05-21T07:00:01.749Z,102015.84
2023-05-21T07:02:31.441Z,102005.84
2023-05-21T07:05:01.098Z,102001.72
2023-05-21T07:07:30.613Z,101994.22
2023-05-21T07:10:02.772Z,101993.72
2023-05-21T07:12:32.288Z,101979.59
2023-05-21T07:15:01.851Z,101970.41
2023-05-21T07:17:31.416Z,101960.41
2023-05-21T07:20:01.075Z,101957.25
2023-05-21T07:22:30.778Z,101954.34
2023-05-21T07:25:02.952Z,101943.13
2023-05-21T07:27:32.513Z,101938.78
2023-05-21T07:30:02.116Z,101935.53
2023-05-21T07:32:31.670Z,101923.03
2023-05-21T07:35:03.723Z,101922.78
2023-05-21T07:37:33.354Z,101900.16
2023-05-21T07:40:06.550Z,101895.53
2023-05-21T07:42:36.164Z,101896.03
2023-05-21T07:45:05.839Z,101884.47
2023-05-21T07:47:35.430Z,101879.50
2023-05-21T07:50:05.040Z,101861.56
2023-05-21T07:52:34.594Z,101848.75
2023-05-21T07:55:07.529Z,101824.00
2023-05-21T07:57:37.106Z,101811.84
2023-05-21T08:00:09.360Z,101808.88
2023-05-21T08:02:39.098Z,101806.47
2023-05-21T08:05:10.584Z,101787.50
2023-05-21T08:07:41.616Z,101784.38
2023-05-21T08:10:14.165Z,101762.59
2023-05-21T08:12:43.719Z,101746.69
2023-05-21T08:15:14.214Z,101735.72
2023-05-21T08:17:43.845Z,101754.66
2023-05-21T08:20:14.569Z,101749.69
2023-05-21T08:22:44.498Z,101755.13
2023-05-21T08:25:16.685Z,101732.88
2023-05-21T08:27:46.240Z,101711.41
2023-05-21T08:30:15.925Z,101707.28
2023-05-21T08:32:45.678Z,101694.94
2023-05-21T08:35:15.306Z,101702.84
2023-05-21T08:37:44.898Z,101699.75
2023-05-21T08:40:17.842Z,101683.81
2023-05-21T08:42:48.911Z,101671.06
2023-05-21T08:45:23.702Z,101669.53
2023-05-21T08:47:59.747Z,101652.97
2023-05-21T08:50:30.545Z,101644.56
2023-05-21T08:53:02.882Z,101623.69
2023-05-21T08:55:39.664Z,101612.56
2023-05-21T08:58:09.264Z,101606.44
2023-05-21T09:00:39.015Z,101612.72
2023-05-21T09:03:12.501Z,101615.53
2023-05-21T09:05:42.656Z,101600.19
2023-05-21T09:08:17.373Z,101601.13
2023-05-21T09:10:53.079Z,101594.28
2023-05-21T09:13:23.573Z,101582.72
2023-05-21T09:15:53.208Z,101582.03
2023-05-21T09:18:22.825Z,101583.84
2023-05-21T09:20:54.160Z,101562.06
2023-05-21T09:23:23.715Z,101561.47
2023-05-21T09:25:55.978Z,101541.44
2023-05-21T09:28:25.529Z,101551.31
2023-05-21T09:30:56.231Z,101545.25
2023-05-21T09:33:29.819Z,101532.25
2023-05-21T09:35:59.491Z,101527.88
2023-05-21T09:38:29.607Z,101522.06
2023-05-21T09:41:01.788Z,101500.31
2023-05-21T09:43:31.568Z,101483.94
2023-05-21T09:46:02.923Z,101469.16
2023-05-21T09:48:39.669Z,101472.38
2023-05-21T09:51:13.872Z,101485.31
2023-05-21T09:53:47.717Z,101471.78
2023-05-21T09:56:22.476Z,101447.72
2023-05-21T09:58:54.830Z,101448.75
2023-05-21T10:01:24.602Z,101441.78
2023-05-21T10:03:58.788Z,101425.41
2023-05-21T10:06:31.204Z,101402.97
2023-05-21T10:09:05.613Z,101415.28
2023-05-21T10:11:39.693Z,101373.69
2023-05-21T10:14:10.071Z,101361.50
2023-05-21T10:16:40.246Z,101350.50
2023-05-21T10:19:11.197Z,101347.16
2023-05-21T10:21:42.529Z,101306.41
2023-05-21T10:24:12.552Z,101280.59
2023-05-21T10:26:44.698Z,101252.09
2023-05-21T10:29:15.362Z,101240.16
2023-05-21T10:31:50.202Z,101217.63
2023-05-21T10:34:19.890Z,101197.44
2023-05-21T10:36:52.213Z,101187.97
2023-05-21T10:39:22.697Z,101187.09
2023-05-21T10:42:03.325Z,101170.75
2023-05-21T10:44:40.282Z,101152.38
2023-05-21T10:47:29.368Z,101143.53
2023-05-21T10:50:11.427Z,101145.16
2023-05-21T10:52:53.663Z,101147.00
2023-05-21T10:55:36.301Z,101139.25
2023-05-21T10:58:32.558Z,101139.22
2023-05-21T11:01:02.500Z,101129.63
2023-05-21T11:03:35.647Z,101131.53
2023-05-21T11:06:08.695Z,101121.13
2023-05-21T11:08:39.256Z,101120.22
2023-05-21T11:11:08.844Z,101119.47
2023-05-21T11:13:53.236Z,101122.03
2023-05-21T11:16:27.789Z,101114.97
2023-05-21T11:19:04.037Z,101112.38
2023-05-21T11:21:34.535Z,101112.50
2023-05-21T11:24:06.519Z,101108.97
2023-05-21T11:27:07.376Z,101102.94
2023-05-21T11:29:44.657Z,101083.72
2023-05-21T11:32:17.590Z,101088.13
2023-05-21T11:34:48.792Z,101092.59
2023-05-21T11:37:33.643Z,101100.50
2023-05-21T11:40:30.442Z,101094.38
2023-05-21T11:43:00.143Z,101096.09
2023-05-21T11:45:36.438Z,101090.91
2023-05-21T11:48:06.567Z,101093.53
2023-05-21T11:50:37.714Z,101098.84
2023-05-21T11:53:07.739Z,101093.59
2023-05-21T11:55:38.870Z,101084.84
2023-05-21T11:58:09.236Z,101091.84
2023-05-21T12:00:44.017Z,101086.53
2023-05-21T12:03:16.972Z,101092.66
2023-05-21T12:05:50.006Z,101084.81
2023-05-21T12:08:25.618Z,101084.81
2023-05-21T12:10:59.677Z,101087.44
2023-05-21T12:13:29.240Z,101090.94
2023-05-21T12:16:01.373Z,101090.09
2023-05-21T12:18:30.991Z,101081.31
2023-05-21T12:21:00.745Z,101086.56
2023-05-21T12:23:30.554Z,101089.16
2023-05-21T12:26:00.129Z,101090.91
2023-05-21T12:28:29.773Z,101087.41
2023-05-21T12:31:01.970Z,101079.50
2023-05-21T12:33:37.134Z,101085.53
2023-05-21T12:36:07.403Z,101096.84
2023-05-21T12:38:36.998Z,101114.28
2023-05-21T12:41:07.609Z,101136.13
2023-05-21T12:43:37.189Z,101152.78
2023-05-21T12:46:09.407Z,101140.22
2023-05-21T12:48:39.006Z,101202.25
2023-05-21T12:51:08.668Z,101223.22
2023-05-21T12:53:41.370Z,101216.22
2023-05-21T12:56:12.836Z,101234.81
2023-05-21T12:58:42.593Z,101187.22
2023-05-21T13:01:15.246Z,101238.75
2023-05-21T13:03:45.203Z,101288.63
2023-05-21T13:06:16.180Z,101300.16
2023-05-21T13:08:45.736Z,101340.25
2023-05-21T13:11:15.244Z,101320.25
2023-05-21T13:13:44.821Z,101358.84
2023-05-21T13:16:16.939Z,101371.22
2023-05-21T13:18:46.623Z,101349.00
2023-05-21T13:21:16.251Z,101391.09
2023-05-21T13:23:45.836Z,101355.06
2023-05-21T13:26:15.396Z,101402.50
2023-05-21T13:28:45.023Z,101413.66
2023-05-21T13:31:17.167Z,101447.16
2023-05-21T13:33:46.840Z,101389.41
2023-05-21T13:36:16.426Z,101439.03
2023-05-21T13:38:45.986Z,101461.97
2023-05-21T13:41:15.554Z,101465.28
2023-05-21T13:43:45.243Z,101467.72
2023-05-21T13:46:17.402Z,101490.78
2023-05-21T13:48:47.012Z,101475.88
2023-05-21T13:51:30.880Z,101442.84
2023-05-21T13:54:06.274Z,101434.88
2023-05-21T13:56:36.236Z,101451.81
2023-05-21T13:59:05.910Z,101416.97
2023-05-21T14:01:38.068Z,101393.28
2023-05-21T14:04:08.514Z,101397.03
2023-05-21T14:06:38.315Z,101324.22
2023-05-21T14:09:08.158Z,101359.41
2023-05-21T14:11:38.463Z,101367.25
2023-05-21T14:14:08.100Z,101319.00
2023-05-21T14:16:40.257Z,101328.53
2023-05-21T14:19:09.909Z,101333.84
2023-05-21T14:21:39.548Z,101300.69
2023-05-21T14:24:09.141Z,101307.63
2023-05-21T14:26:40.441Z,101338.38
2023-05-21T14:29:10.129Z,101332.22
2023-05-21T14:31:42.319Z,101329.72
2023-05-21T14:34:11.947Z,101312.06
2023-05-21T14:36:41.463Z,101314.56
2023-05-21T14:39:11.042Z,101344.53
2023-05-21T14:41:41.486Z,101355.06
2023-05-21T14:44:11.072Z,101303.41
2023-05-21T14:46:43.841Z,101299.06
2023-05-21T14:49:14.636Z,101314.09
2023-05-21T14:51:45.121Z,101300.03
2023-05-21T14:54:14.674Z,101267.59
2023-05-21T14:56:44.225Z,101241.31
2023-05-21T14:59:14.502Z,101228.94
2023-05-21T15:01:46.762Z,101221.06
2023-05-21T15:04:16.444Z,101227.28
2023-05-21T15:06:46.130Z,101226.44
2023-05-21T15:09:15.710Z,101233.50
2023-05-21T15:11:46.242Z,101205.47
2023-05-21T15:14:15.961Z,101199.31
2023-05-21T15:16:48.219Z,101203.69
2023-05-21T15:19:18.065Z,101191.38
2023-05-21T15:21:47.627Z,101177.44
2023-05-21T15:24:17.134Z,101160.84
2023-05-21T15:26:46.682Z,101166.94
2023-05-21T15:29:16.252Z,101159.09
2023-05-21T15:31:51.175Z,101153.88
2023-05-21T15:34:20.749Z,101129.31
2023-05-21T15:36:50.316Z,101110.09
2023-05-21T15:39:19.924Z,101098.69
2023-05-21T15:41:49.442Z,101102.16
2023-05-21T15:44:19.299Z,101099.50
2023-05-21T15:46:51.582Z,101083.69
2023-05-21T15:49:21.171Z,101074.09
2023-05-21T15:51:52.191Z,101064.47
2023-05-21T15:54:21.781Z,101057.38
2023-05-21T15:56:52.561Z,101082.88
2023-05-21T15:59:22.368Z,101083.75
2023-05-21T16:01:54.651Z,101073.22
2023-05-21T16:04:24.211Z,101087.25
2023-05-21T16:06:53.718Z,101068.91
2023-05-21T16:09:23.334Z,101057.47
2023-05-21T16:11:52.895Z,101076.75
2023-05-21T16:14:23.754Z,101065.38
2023-05-21T16:16:56.002Z,101064.56
2023-05-21T16:19:25.713Z,101067.22
2023-05-21T16:21:55.375Z,101068.97
2023-05-21T16:24:24.945Z,101054.06
2023-05-21T16:26:54.489Z,101040.97
2023-05-21T16:29:24.067Z,101046.22
2023-05-21T16:31:56.275Z,101051.47
2023-05-21T16:34:25.906Z,101054.97
2023-05-21T16:36:55.467Z,101047.97
2023-05-21T16:39:25.282Z,101043.59
2023-05-21T16:41:56.008Z,101037.47
2023-05-21T16:44:25.673Z,101027.88
2023-05-21T16:46:57.778Z,101027.88
2023-05-21T16:49:27.374Z,101012.09
2023-05-21T16:51:56.955Z,100997.22
2023-05-21T16:54:26.889Z,100976.22
2023-05-21T16:56:57.095Z,100973.63
2023-05-21T16:59:26.629Z,100964.00
2023-05-21T17:01:58.869Z,100974.56
2023-05-21T17:04:28.499Z,100956.16
2023-05-21T17:06:58.056Z,100981.56
2023-05-21T17:09:27.625Z,100974.53
2023-05-21T17:11:57.185Z,100974.53
2023-05-21T17:14:34.156Z,100978.06
2023-05-21T17:17:07.173Z,100964.03
2023-05-21T17:19:37.494Z,100976.28
2023-05-21T17:22:07.473Z,100975.41
2023-05-21T17:24:37.048Z,100963.16
2023-05-21T17:27:06.761Z,100960.56
2023-05-21T17:29:37.013Z,100958.78
2023-05-21T17:32:09.581Z,100959.66
2023-05-21T17:34:39.166Z,100957.03
2023-05-21T17:37:08.754Z,100959.63
2023-05-21T17:39:38.378Z,100957.88
2023-05-21T17:42:08.425Z,100955.25
2023-05-21T17:44:37.975Z,100961.31
2023-05-21T17:47:10.776Z,100957.81
2023-05-21T17:49:40.404Z,100963.06
2023-05-21T17:52:10.276Z,100963.03
2023-05-21T17:54:39.832Z,100959.50
2023-05-21T17:57:09.416Z,100960.38
2023-05-21T17:59:40.888Z,100955.13
2023-05-21T18:02:13.835Z,100961.25
2023-05-21T18:04:43.477Z,100958.59
2023-05-21T18:07:13.055Z,100965.56
2023-05-21T18:09:43.000Z,100957.66
2023-05-21T18:12:12.609Z,100964.63
2023-05-21T18:14:42.194Z,100969.00
2023-05-21T18:17:14.364Z,100966.38
2023-05-21T18:19:43.892Z,100968.09
2023-05-21T18:22:13.796Z,100972.44
2023-05-21T18:24:43.486Z,100981.16
2023-05-21T18:27:13.683Z,100990.72
2023-05-21T18:29:43.244Z,101009.00
2023-05-21T18:32:16.806Z,101018.50
2023-05-21T18:34:47.797Z,101033.31
2023-05-21T18:37:17.752Z,101036.78
2023-05-21T18:39:47.356Z,101045.47
2023-05-21T18:42:17.448Z,101050.69
2023-05-21T18:44:47.372Z,101054.16
2023-05-21T18:47:19.500Z,101056.69
2023-05-21T18:49:49.043Z,101058.41
2023-05-21T18:52:18.584Z,101068.84
2023-05-21T18:54:48.163Z,101081.00
2023-05-21T18:57:17.667Z,101085.28
2023-05-21T18:59:47.656Z,101093.06
2023-05-21T19:02:19.939Z,101096.50
2023-05-21T19:04:49.945Z,101105.16
2023-05-21T19:07:19.537Z,101109.53
2023-05-21T19:09:49.089Z,101112.97
2023-05-21T19:12:18.922Z,101116.38
2023-05-21T19:14:48.477Z,101129.38
2023-05-21T19:17:20.816Z,101133.69
2023-05-21T19:19:54.387Z,101141.50
2023-05-21T19:22:24.035Z,101152.72
2023-05-21T19:24:53.579Z,101163.09
2023-05-21T19:27:23.937Z,101165.63
2023-05-21T19:29:53.613Z,101163.88
2023-05-21T19:32:26.351Z,101170.78
2023-05-21T19:34:57.527Z,101189.84
2023-05-21T19:37:27.073Z,101202.03
2023-05-21T19:39:56.664Z,101204.56
2023-05-21T19:42:27.060Z,101210.63
2023-05-21T19:44:56.581Z,101227.06
2023-05-21T19:47:28.766Z,101234.88
2023-05-21T19:49:58.469Z,101240.00
2023-05-21T19:52:27.979Z,101248.63
2023-05-21T19:55:04.431Z,101257.31
2023-05-21T19:57:34.278Z,101263.34
2023-05-21T20:00:04.518Z,101273.72
2023-05-21T20:02:36.688Z,101274.59
2023-05-21T20:05:06.444Z,101283.31
2023-05-21T20:07:36.048Z,101278.00
2023-05-21T20:10:05.706Z,101290.16
2023-05-21T20:12:35.817Z,101301.38
2023-05-21T20:15:05.740Z,101298.63
2023-05-21T20:17:39.856Z,101316.09
2023-05-21T20:20:12.233Z,101325.56
2023-05-21T20:22:41.809Z,101332.50
2023-05-21T20:25:12.210Z,101329.00
2023-05-21T20:27:42.408Z,101331.56
2023-05-21T20:30:12.398Z,101328.78
2023-05-21T20:32:44.658Z,101329.63
2023-05-21T20:35:14.268Z,101332.19
2023-05-21T20:37:43.898Z,101338.22
2023-05-21T20:40:15.014Z,101342.50
2023-05-21T20:42:45.259Z,101338.09
2023-05-21T20:45:16.068Z,101337.16
2023-05-21T20:47:50.165Z,101340.56
2023-05-21T20:50:21.829Z,101354.31
2023-05-21T20:52:52.136Z,101361.22
2023-05-21T20:55:21.665Z,101365.47
2023-05-21T20:57:51.439Z,101368.84
2023-05-21T21:00:21.657Z,101368.78
2023-05-21T21:02:54.816Z,101386.94
2023-05-21T21:05:25.466Z,101396.38
2023-05-21T21:07:56.030Z,101392.94
2023-05-21T21:10:25.798Z,101395.50
2023-05-21T21:12:55.331Z,101396.19
2023-05-21T21:15:24.902Z,101397.97
2023-05-21T21:17:57.151Z,101402.25
2023-05-21T21:20:27.031Z,101402.91
2023-05-21T21:22:56.608Z,101410.59
2023-05-21T21:25:26.175Z,101424.34
2023-05-21T21:27:55.796Z,101425.13
2023-05-21T21:30:25.849Z,101435.47
2023-05-21T21:32:58.170Z,101442.28
2023-05-21T21:35:27.781Z,101452.66
2023-05-21T21:37:57.383Z,101458.50
2023-05-21T21:40:27.535Z,101477.59
2023-05-21T21:42:57.100Z,101481.81
2023-05-21T21:45:26.811Z,101486.06
2023-05-21T21:47:59.070Z,101504.25
2023-05-21T21:50:29.040Z,101512.91
2023-05-21T21:52:59.989Z,101509.34
2023-05-21T21:55:29.719Z,101518.03
2023-05-21T21:57:59.303Z,101519.72
2023-05-21T22:00:30.098Z,101524.91
2023-05-21T22:03:02.295Z,101522.22
2023-05-21T22:05:33.010Z,101526.59
2023-05-21T22:08:02.561Z,101524.81
2023-05-21T22:10:33.644Z,101531.59
2023-05-21T22:13:03.222Z,101528.09
2023-05-21T22:15:34.812Z,101528.03
2023-05-21T22:18:09.694Z,101524.47
2023-05-21T22:20:39.662Z,101523.50
2023-05-21T22:23:09.286Z,101532.88
2023-05-21T22:25:38.793Z,101523.25
2023-05-21T22:28:08.536Z,101527.56
2023-05-21T22:30:39.481Z,101533.56
2023-05-21T22:33:11.928Z,101525.59
2023-05-21T22:35:41.468Z,101534.94
2023-05-21T22:38:11.042Z,101537.41
2023-05-21T22:40:40.848Z,101538.91
2023-05-21T22:43:10.668Z,101543.19
2023-05-21T22:45:41.092Z,101548.41
2023-05-21T22:48:14.415Z,101548.28
2023-05-21T22:50:44.654Z,101554.16
2023-05-21T22:53:14.233Z,101580.91
2023-05-21T22:55:44.048Z,101586.88
2023-05-21T22:58:13.614Z,101594.56
2023-05-21T23:00:43.169Z,101596.84
2023-05-21T23:03:15.415Z,101597.63
2023-05-21T23:05:45.580Z,101607.19
2023-05-21T23:08:15.691Z,101609.72
2023-05-21T23:10:45.371Z,101607.97
2023-05-21T23:13:15.037Z,101605.22
2023-05-21T23:15:44.590Z,101614.66
2023-05-21T23:18:16.849Z,101610.22
2023-05-21T23:20:46.549Z,101612.69
2023-05-21T23:23:16.139Z,101614.38
2023-05-21T23:25:45.847Z,101620.47
2023-05-21T23:28:15.394Z,101620.34
2023-05-21T23:30:44.977Z,101625.47
2023-05-21T23:33:17.624Z,101620.25
2023-05-21T23:35:47.177Z,101617.53
2023-05-21T23:38:16.860Z,101618.31
2023-05-21T23:40:46.502Z,101615.72
2023-05-21T23:43:16.101Z,101612.13
2023-05-21T23:45:46.068Z,101628.47
2023-05-21T23:48:18.244Z,101625.03
2023-05-21T23:50:47.815Z,101620.75
2023-05-21T23:53:17.335Z,101619.84
2023-05-21T23:55:47.497Z,101618.16
2023-05-21T23:58:17.028Z,101618.06
